首页
METAR-TAF:

METAR-TAF

机场 :

瓦讷, 法国

纬度: 47-43-19N, 经度: 2-43-41W, 海拔: 130米

当前天气观测

该预报发布于39分钟前的17:30 UTC
风速9节,风向
温度 26°C
湿度 74%
气压 1012 hPa
能见度10公里或以上
1500米以下无云,无积雨云

METAR: LFRV 231730Z AUTO 19009KT CAVOK 26/21 Q1012

时间: 20:09 (18:09 UTC)


TAF: 丢失

超过4000个机场的气象观测和天气预报(METAR&TAF报告)。

可查询的气象台以黄色和红色小点在地图上表示。

将鼠标移到小点上方,可查看气象台名称。

然后点击查看天气观测和预报。

如需切换地图:点击带黑十字的绿色按钮放大地图;点击带横线的绿色按钮缩小地图;或者点击绿色箭头查看邻近地区的地图。


METAR-TAF: